ΕΜΥ, Εθνική Μετεωρολογική Υπηρεσία - Δελτία Καιρού, Προγνώσεις

ΑΕΡΟΝΑΥΤΙΛΙΑ

GREEK AIRPORTS CODES

LGMG 181500Z 04015KT 9999 FEW015 11/M03 Q1023=

EUROPEAN AIRPORTS CODES

LFPO 192300Z 28005KT 8000 SCT010 BKN033 06/06 Q1028 NOSIG=